createdAt,value
2019-05-05T00:00:16.685Z,79.11
2019-05-05T00:02:52.097Z,78.88
2019-05-05T00:05:28.000Z,77.24
2019-05-05T00:07:57.284Z,76.83
2019-05-05T00:10:54.157Z,76.35
2019-05-05T00:13:34.658Z,76.83
2019-05-05T00:16:21.540Z,77.48
2019-05-05T00:18:51.853Z,76.65
2019-05-05T00:21:20.823Z,77.50
2019-05-05T00:23:50.125Z,76.92
2019-05-05T00:26:18.769Z,76.09
2019-05-05T00:28:48.034Z,76.48
2019-05-05T00:31:16.646Z,76.11
2019-05-05T00:33:45.999Z,76.17
2019-05-05T00:36:15.017Z,75.11
2019-05-05T00:38:44.535Z,77.03
2019-05-05T00:41:14.817Z,74.61
2019-05-05T00:43:45.121Z,76.81
2019-05-05T00:46:20.497Z,78.07
2019-05-05T00:48:49.380Z,76.71
2019-05-05T00:51:18.269Z,77.00
2019-05-05T00:53:47.265Z,76.05
2019-05-05T00:56:16.566Z,75.29
2019-05-05T00:58:50.750Z,77.25
2019-05-05T01:01:30.062Z,76.79
2019-05-05T01:03:59.348Z,77.15
2019-05-05T01:06:29.558Z,76.63
2019-05-05T01:08:58.145Z,76.71
2019-05-05T01:11:26.852Z,77.58
2019-05-05T01:13:55.461Z,77.57
2019-05-05T01:16:24.883Z,77.68
2019-05-05T01:18:55.384Z,77.88
2019-05-05T01:21:24.598Z,76.46
2019-05-05T01:23:54.857Z,77.09
2019-05-05T01:26:24.875Z,77.78
2019-05-05T01:28:56.159Z,80.05
2019-05-05T01:31:25.271Z,79.90
2019-05-05T01:34:05.012Z,80.60
2019-05-05T01:36:34.531Z,80.00
2019-05-05T01:39:21.683Z,79.84
2019-05-05T01:41:54.341Z,79.70
2019-05-05T01:44:24.646Z,80.59
2019-05-05T01:46:55.023Z,80.71
2019-05-05T01:49:25.213Z,80.63
2019-05-05T01:51:55.269Z,81.70
2019-05-05T01:54:25.050Z,80.66
2019-05-05T01:56:55.367Z,81.53
2019-05-05T01:59:25.177Z,81.41
2019-05-05T02:01:55.070Z,80.81
2019-05-05T02:04:25.005Z,81.58
2019-05-05T02:06:55.094Z,81.58
2019-05-05T02:09:24.910Z,81.72
2019-05-05T02:11:54.767Z,81.83
2019-05-05T02:14:24.777Z,81.79
2019-05-05T02:16:54.649Z,81.57
2019-05-05T02:19:25.058Z,80.69
2019-05-05T02:21:54.884Z,80.66
2019-05-05T02:24:25.112Z,80.37
2019-05-05T02:26:54.684Z,79.96
2019-05-05T02:29:39.002Z,79.56
2019-05-05T02:32:20.418Z,79.45
2019-05-05T02:34:56.382Z,79.55
2019-05-05T02:37:25.613Z,79.61
2019-05-05T02:40:02.327Z,80.01
2019-05-05T02:42:26.948Z,79.79
2019-05-05T02:44:57.781Z,80.39
2019-05-05T02:47:37.196Z,80.61
2019-05-05T02:50:09.083Z,80.21
2019-05-05T02:52:39.492Z,80.47
2019-05-05T02:55:08.905Z,81.24
2019-05-05T02:57:37.944Z,81.01
2019-05-05T03:00:17.815Z,80.54
2019-05-05T03:02:46.610Z,81.17
2019-05-05T03:05:15.633Z,81.91
2019-05-05T03:07:44.632Z,82.65
2019-05-05T03:10:14.116Z,83.08
2019-05-05T03:12:43.980Z,83.41
2019-05-05T03:15:19.599Z,83.79
2019-05-05T03:17:48.695Z,83.18
2019-05-05T03:20:17.581Z,83.76
2019-05-05T03:22:46.576Z,83.81
2019-05-05T03:25:15.569Z,83.06
2019-05-05T03:27:44.579Z,81.28
2019-05-05T03:30:15.443Z,79.42
2019-05-05T03:32:45.575Z,79.91
2019-05-05T03:35:14.500Z,81.38
2019-05-05T03:37:44.611Z,82.50
2019-05-05T03:40:20.795Z,83.62
2019-05-05T03:43:04.297Z,83.82
2019-05-05T03:45:46.532Z,83.19
2019-05-05T03:48:15.161Z,82.21
2019-05-05T03:50:44.690Z,82.30
2019-05-05T03:53:14.010Z,83.07
2019-05-05T03:55:44.084Z,82.98
2019-05-05T03:58:14.660Z,82.54
2019-05-05T04:01:27.625Z,83.01
2019-05-05T04:04:15.649Z,84.24
2019-05-05T04:06:44.603Z,85.37
2019-05-05T04:09:13.829Z,85.64
2019-05-05T04:11:44.373Z,85.98
2019-05-05T04:14:14.333Z,83.93
2019-05-05T04:17:03.484Z,83.29
2019-05-05T04:19:34.290Z,83.29
2019-05-05T04:22:04.252Z,83.95
2019-05-05T04:27:04.005Z,83.79
2019-05-05T04:29:34.509Z,83.37
2019-05-05T04:32:04.609Z,82.26
2019-05-05T04:34:34.805Z,83.76
2019-05-05T04:37:04.296Z,80.67
2019-05-05T04:39:34.275Z,77.22
2019-05-05T04:42:04.794Z,75.94
2019-05-05T04:44:34.575Z,75.57
2019-05-05T04:47:10.130Z,79.04
2019-05-05T04:49:45.347Z,78.20
2019-05-05T04:52:15.311Z,78.78
2019-05-05T04:54:52.447Z,78.03
2019-05-05T04:57:21.107Z,78.03
2019-05-05T04:59:53.875Z,78.24
2019-05-05T05:02:30.459Z,79.87
2019-05-05T05:05:04.103Z,79.87
2019-05-05T05:07:34.480Z,77.25
2019-05-05T05:10:04.453Z,77.25
2019-05-05T05:12:34.196Z,77.04
2019-05-05T05:15:04.428Z,76.69
2019-05-05T05:17:44.327Z,76.43
2019-05-05T05:20:14.127Z,76.43
2019-05-05T05:22:43.971Z,76.15
2019-05-05T05:25:13.644Z,75.91
2019-05-05T05:27:44.319Z,75.91
2019-05-05T05:30:13.750Z,75.01
2019-05-05T05:32:44.593Z,73.45
2019-05-05T05:35:14.093Z,73.45
2019-05-05T05:37:44.831Z,73.13
2019-05-05T05:40:19.336Z,74.85
2019-05-05T05:42:48.043Z,72.84
2019-05-05T05:45:26.951Z,72.84
2019-05-05T05:48:10.567Z,72.58
2019-05-05T05:50:44.349Z,72.21
2019-05-05T05:53:14.011Z,72.54
2019-05-05T05:55:44.808Z,73.50
2019-05-05T05:58:14.176Z,72.09
2019-05-05T06:00:44.255Z,73.12
2019-05-05T06:03:14.107Z,72.32
2019-05-05T06:05:43.799Z,72.44
2019-05-05T06:08:14.233Z,73.18
2019-05-05T06:10:44.406Z,72.80
2019-05-05T06:13:15.237Z,71.82
2019-05-05T06:15:44.568Z,72.92
2019-05-05T06:18:14.017Z,72.54
2019-05-05T06:20:44.566Z,72.32
2019-05-05T06:23:14.702Z,71.79
2019-05-05T06:25:44.598Z,71.52
2019-05-05T06:28:14.508Z,71.27
2019-05-05T06:30:44.359Z,73.43
2019-05-05T06:33:13.790Z,72.84
2019-05-05T06:35:44.375Z,70.52
2019-05-05T06:38:13.746Z,71.56
2019-05-05T06:40:55.230Z,71.66
2019-05-05T06:43:44.118Z,71.95
2019-05-05T06:46:15.177Z,72.88
2019-05-05T06:48:43.968Z,73.06
2019-05-05T06:51:14.071Z,74.89
2019-05-05T06:53:43.530Z,74.00
2019-05-05T06:56:14.534Z,74.54
2019-05-05T06:58:44.832Z,75.12
2019-05-05T07:01:14.423Z,74.45
2019-05-05T07:03:43.966Z,74.62
2019-05-05T07:06:14.608Z,74.33
2019-05-05T07:08:43.974Z,74.82
2019-05-05T07:11:14.548Z,75.15
2019-05-05T07:13:44.406Z,76.05
2019-05-05T07:16:15.016Z,75.02
2019-05-05T07:18:44.684Z,74.03
2019-05-05T07:21:14.250Z,71.81
2019-05-05T07:23:44.503Z,70.97
2019-05-05T07:26:14.359Z,68.93
2019-05-05T07:28:44.717Z,68.04
2019-05-05T07:31:14.304Z,67.27
2019-05-05T07:33:43.766Z,62.07
2019-05-05T07:36:50.427Z,61.35
2019-05-05T07:39:19.317Z,62.64
2019-05-05T07:41:47.920Z,61.37
2019-05-05T07:44:26.640Z,63.20
2019-05-05T07:46:47.352Z,63.83
2019-05-05T07:49:16.349Z,63.75
2019-05-05T07:51:45.622Z,63.92
2019-05-05T07:54:14.814Z,63.92
2019-05-05T07:56:44.394Z,61.06
2019-05-05T07:59:14.575Z,54.47
2019-05-05T08:01:46.571Z,52.72
2019-05-05T08:04:14.261Z,51.73
2019-05-05T08:06:44.537Z,51.13
2019-05-05T08:09:14.599Z,49.35
2019-05-05T08:11:43.803Z,48.99
2019-05-05T08:14:14.565Z,50.79
2019-05-05T08:17:04.125Z,42.41
2019-05-05T08:19:48.708Z,43.29
2019-05-05T08:22:17.973Z,43.34
2019-05-05T08:25:05.732Z,43.34
2019-05-05T08:28:04.423Z,44.23
2019-05-05T08:30:54.463Z,45.94
2019-05-05T08:33:24.114Z,47.54
2019-05-05T08:35:54.145Z,48.54
2019-05-05T08:38:24.303Z,48.23
2019-05-05T08:40:54.373Z,46.10
2019-05-05T08:43:24.178Z,43.30
2019-05-05T08:45:55.429Z,45.02
2019-05-05T08:48:24.672Z,44.63
2019-05-05T08:50:54.163Z,44.39
2019-05-05T08:53:24.303Z,43.53
2019-05-05T08:55:54.657Z,45.88
2019-05-05T08:58:23.833Z,43.21
2019-05-05T09:00:53.673Z,42.54
2019-05-05T09:03:24.272Z,43.68
2019-05-05T09:05:54.330Z,41.56
2019-05-05T09:08:24.150Z,39.79
2019-05-05T09:10:55.181Z,40.89
2019-05-05T09:13:24.725Z,40.42
2019-05-05T09:15:54.403Z,41.80
2019-05-05T09:18:24.625Z,40.97
2019-05-05T09:20:53.830Z,40.23
2019-05-05T09:23:24.032Z,37.79
2019-05-05T09:26:11.063Z,38.35
2019-05-05T09:28:59.006Z,36.69
2019-05-05T09:31:28.196Z,37.48
2019-05-05T09:33:57.193Z,37.95
2019-05-05T09:36:26.188Z,38.96
2019-05-05T09:38:55.183Z,37.57
2019-05-05T09:41:23.819Z,36.88
2019-05-05T09:43:53.929Z,36.81
2019-05-05T09:46:23.555Z,38.46
2019-05-05T09:48:54.128Z,36.95
2019-05-05T09:51:24.157Z,36.80
2019-05-05T09:53:54.241Z,39.17
2019-05-05T09:56:23.671Z,39.44
2019-05-05T09:58:54.461Z,39.18
2019-05-05T10:01:24.550Z,39.36
2019-05-05T10:03:55.877Z,38.61
2019-05-05T10:06:24.857Z,38.52
2019-05-05T10:08:53.901Z,36.56
2019-05-05T10:11:23.830Z,35.62
2019-05-05T10:13:54.629Z,35.81
2019-05-05T10:16:23.702Z,34.92
2019-05-05T10:18:54.214Z,31.81
2019-05-05T10:21:24.609Z,31.60
2019-05-05T10:23:55.090Z,30.97
2019-05-05T10:26:24.157Z,30.64
2019-05-05T10:28:53.731Z,30.64
2019-05-05T10:31:24.126Z,28.56
2019-05-05T10:33:57.825Z,30.01
2019-05-05T10:36:27.116Z,32.23
2019-05-05T10:39:00.631Z,32.55
2019-05-05T10:41:29.613Z,31.07
2019-05-05T10:43:58.217Z,31.87
2019-05-05T10:46:27.190Z,33.89
2019-05-05T10:48:56.127Z,35.23
2019-05-05T10:51:24.747Z,33.17
2019-05-05T10:53:54.480Z,32.08
2019-05-05T10:56:24.190Z,33.01
2019-05-05T10:58:54.566Z,30.88
2019-05-05T11:01:23.719Z,31.95
2019-05-05T11:03:52.801Z,31.97
2019-05-05T11:06:21.546Z,30.54
2019-05-05T11:08:50.150Z,31.67
2019-05-05T11:11:19.074Z,33.12
2019-05-05T11:13:48.078Z,31.74
2019-05-05T11:16:16.766Z,33.98
2019-05-05T11:18:45.501Z,30.94
2019-05-05T11:21:14.580Z,31.71
2019-05-05T11:23:44.821Z,31.58
2019-05-05T11:26:14.457Z,28.93
2019-05-05T11:28:44.532Z,31.71
2019-05-05T11:31:13.837Z,30.96
2019-05-05T11:33:56.610Z,32.18
2019-05-05T11:36:29.017Z,34.31
2019-05-05T11:38:57.970Z,35.43
2019-05-05T11:41:26.857Z,36.58
2019-05-05T11:43:56.054Z,35.17
2019-05-05T11:46:24.878Z,36.89
2019-05-05T11:48:54.520Z,36.65
2019-05-05T11:51:24.962Z,37.68
2019-05-05T11:53:54.206Z,37.93
2019-05-05T11:56:23.176Z,36.22
2019-05-05T11:58:52.194Z,35.98
2019-05-05T12:01:21.058Z,36.59
2019-05-05T12:03:50.258Z,36.15
2019-05-05T12:06:19.174Z,34.92
2019-05-05T12:08:48.165Z,32.95
2019-05-05T12:11:17.139Z,32.14
2019-05-05T12:13:46.439Z,34.73
2019-05-05T12:16:30.171Z,33.69
2019-05-05T12:18:59.415Z,33.71
2019-05-05T12:21:28.428Z,37.32
2019-05-05T12:23:58.270Z,39.20
2019-05-05T12:26:49.398Z,39.19
2019-05-05T12:29:25.113Z,39.10
2019-05-05T12:31:54.252Z,38.62
2019-05-05T12:34:23.669Z,38.58
2019-05-05T12:36:53.910Z,38.86
2019-05-05T12:39:23.171Z,37.57
2019-05-05T12:41:54.083Z,37.60
2019-05-05T12:44:27.491Z,39.71
2019-05-05T12:47:14.428Z,40.33
2019-05-05T12:49:43.975Z,40.39
2019-05-05T12:52:13.876Z,40.96
2019-05-05T12:54:44.090Z,40.74
2019-05-05T12:57:13.871Z,39.73
2019-05-05T12:59:44.378Z,39.24
2019-05-05T13:02:14.285Z,38.76
2019-05-05T13:04:43.314Z,38.64
2019-05-05T13:07:13.628Z,37.91
2019-05-05T13:09:44.104Z,35.47
2019-05-05T13:12:15.065Z,35.43
2019-05-05T13:14:44.620Z,36.75
2019-05-05T13:17:14.266Z,36.79
2019-05-05T13:20:08.622Z,36.92
2019-05-05T13:22:57.216Z,35.32
2019-05-05T13:25:56.029Z,37.28
2019-05-05T13:28:18.022Z,35.47
2019-05-05T13:30:46.982Z,36.18
2019-05-05T13:33:15.618Z,34.89
2019-05-05T13:35:44.659Z,35.86
2019-05-05T13:38:14.557Z,34.60
2019-05-05T13:40:43.929Z,35.25
2019-05-05T13:43:14.485Z,35.17
2019-05-05T13:45:49.926Z,35.35
2019-05-05T13:48:18.848Z,35.18
2019-05-05T13:50:50.248Z,34.47
2019-05-05T13:53:19.188Z,31.69
2019-05-05T13:55:48.702Z,29.59
2019-05-05T13:58:17.614Z,30.13
2019-05-05T14:00:46.684Z,29.36
2019-05-05T14:03:15.293Z,31.76
2019-05-05T14:05:44.159Z,29.69
2019-05-05T14:08:14.693Z,30.41
2019-05-05T14:10:43.889Z,32.29
2019-05-05T14:13:12.509Z,35.35
2019-05-05T14:15:41.466Z,32.35
2019-05-05T14:18:10.373Z,34.70
2019-05-05T14:20:39.559Z,35.46
2019-05-05T14:23:08.223Z,33.38
2019-05-05T14:25:37.133Z,34.89
2019-05-05T14:28:06.328Z,34.27
2019-05-05T14:30:50.184Z,35.74
2019-05-05T14:33:23.561Z,32.64
2019-05-05T14:36:20.925Z,30.64
2019-05-05T14:38:53.913Z,30.47
2019-05-05T14:41:22.785Z,30.47
2019-05-05T14:43:53.959Z,31.34
2019-05-05T14:46:23.498Z,29.55
2019-05-05T14:48:53.507Z,30.73
2019-05-05T14:51:22.696Z,30.62
2019-05-05T14:53:54.112Z,32.85
2019-05-05T14:56:35.365Z,34.00
2019-05-05T14:58:54.293Z,36.80
2019-05-05T15:01:24.726Z,37.06
2019-05-05T15:03:53.598Z,38.24
2019-05-05T15:06:35.155Z,40.23
2019-05-05T15:09:24.665Z,40.83
2019-05-05T15:12:11.457Z,41.00
2019-05-05T15:14:40.348Z,43.92
2019-05-05T15:17:09.040Z,44.05
2019-05-05T15:19:38.026Z,43.28
2019-05-05T15:22:06.734Z,42.30
2019-05-05T15:24:35.345Z,41.95
2019-05-05T15:27:06.100Z,43.36
2019-05-05T15:29:35.338Z,44.53
2019-05-05T15:32:04.453Z,44.35
2019-05-05T15:34:34.376Z,44.06
2019-05-05T15:37:03.998Z,43.85
2019-05-05T15:39:33.632Z,44.38
2019-05-05T15:42:04.467Z,44.51
2019-05-05T15:44:34.443Z,45.45
2019-05-05T15:47:03.326Z,45.75
2019-05-05T15:49:32.300Z,46.92
2019-05-05T15:52:01.191Z,45.55
2019-05-05T15:54:29.812Z,44.56
2019-05-05T15:57:05.405Z,44.86
2019-05-05T15:59:29.124Z,46.84
2019-05-05T16:01:58.087Z,46.68
2019-05-05T16:04:27.080Z,49.17
2019-05-05T16:06:56.003Z,49.48
2019-05-05T16:09:25.683Z,49.27
2019-05-05T16:11:54.705Z,50.90
2019-05-05T16:14:23.929Z,49.54
2019-05-05T16:17:14.942Z,48.37
2019-05-05T16:19:55.832Z,45.59
2019-05-05T16:22:30.892Z,44.59
2019-05-05T16:25:14.107Z,44.23
2019-05-05T16:27:44.638Z,45.21
2019-05-05T16:30:16.049Z,45.76
2019-05-05T16:32:45.098Z,45.75
2019-05-05T16:35:14.488Z,46.52
2019-05-05T16:37:44.026Z,46.86
2019-05-05T16:40:14.438Z,48.16
2019-05-05T16:42:43.942Z,47.54
2019-05-05T16:45:16.186Z,45.15
2019-05-05T16:47:44.452Z,44.97
2019-05-05T16:50:13.855Z,44.20
2019-05-05T16:52:48.132Z,41.45
2019-05-05T16:55:28.582Z,41.21
2019-05-05T16:57:57.136Z,41.70
2019-05-05T17:00:26.420Z,41.09
2019-05-05T17:02:55.374Z,41.37
2019-05-05T17:05:24.156Z,42.41
2019-05-05T17:07:55.423Z,42.85
2019-05-05T17:10:24.423Z,41.99
2019-05-05T17:12:53.690Z,42.85
2019-05-05T17:15:46.848Z,43.61
2019-05-05T17:18:54.071Z,44.70
2019-05-05T17:21:30.799Z,44.75
2019-05-05T17:23:59.609Z,45.34
2019-05-05T17:26:28.582Z,45.28
2019-05-05T17:28:57.890Z,45.61
2019-05-05T17:31:26.797Z,45.39
2019-05-05T17:33:55.722Z,46.03
2019-05-05T17:36:25.260Z,46.61
2019-05-05T17:38:54.495Z,46.43
2019-05-05T17:41:51.207Z,46.62
2019-05-05T17:44:27.402Z,45.62
2019-05-05T17:47:00.678Z,45.48
2019-05-05T17:49:55.886Z,46.19
2019-05-05T17:52:55.963Z,47.70
2019-05-05T17:55:44.426Z,48.77
2019-05-05T17:58:13.732Z,50.32
2019-05-05T18:00:54.471Z,51.81
2019-05-05T18:03:26.618Z,51.72
2019-05-05T18:06:18.368Z,51.68
2019-05-05T18:08:50.867Z,51.27
2019-05-05T18:11:25.426Z,51.53
2019-05-05T18:14:03.928Z,51.36
2019-05-05T18:16:33.909Z,51.62
2019-05-05T18:19:04.497Z,51.97
2019-05-05T18:21:34.763Z,51.48
2019-05-05T18:24:03.908Z,51.33
2019-05-05T18:26:34.044Z,51.36
2019-05-05T18:29:03.952Z,51.30
2019-05-05T18:31:33.664Z,50.65
2019-05-05T18:34:03.950Z,51.78
2019-05-05T18:36:33.087Z,51.82
2019-05-05T18:39:02.085Z,51.92
2019-05-05T18:41:36.748Z,52.12
2019-05-05T18:44:16.771Z,52.01
2019-05-05T18:46:45.737Z,51.88
2019-05-05T18:49:14.785Z,51.72
2019-05-05T18:51:44.033Z,51.75
2019-05-05T18:54:12.764Z,51.54
2019-05-05T18:56:41.368Z,52.04
2019-05-05T18:59:10.008Z,52.68
2019-05-05T19:02:01.378Z,53.27
2019-05-05T19:04:38.196Z,54.28
2019-05-05T19:07:17.749Z,55.05
2019-05-05T19:09:53.868Z,55.53
2019-05-05T19:12:17.760Z,56.28
2019-05-05T19:14:46.756Z,55.89
2019-05-05T19:17:15.645Z,55.96
2019-05-05T19:19:47.769Z,55.99
2019-05-05T19:22:16.708Z,56.41
2019-05-05T19:24:45.829Z,56.65
2019-05-05T19:27:15.001Z,55.92
2019-05-05T19:29:46.235Z,56.01
2019-05-05T19:32:15.167Z,55.83
2019-05-05T19:34:55.055Z,55.83
2019-05-05T19:37:33.528Z,56.19
2019-05-05T19:40:06.083Z,56.53
2019-05-05T19:42:37.897Z,57.00
2019-05-05T19:45:12.625Z,56.45
2019-05-05T19:47:43.912Z,56.89
2019-05-05T19:50:36.360Z,57.55
2019-05-05T19:53:06.710Z,58.85
2019-05-05T19:55:36.497Z,59.88
2019-05-05T19:58:05.208Z,60.98
2019-05-05T20:00:35.157Z,60.98
2019-05-05T20:03:17.946Z,61.22
2019-05-05T20:05:35.459Z,61.58
2019-05-05T20:08:05.672Z,61.75
2019-05-05T20:10:34.855Z,61.86
2019-05-05T20:13:05.213Z,62.42
2019-05-05T20:15:44.284Z,62.53
2019-05-05T20:18:14.217Z,62.84
2019-05-05T20:20:44.494Z,63.07
2019-05-05T20:23:14.269Z,62.73
2019-05-05T20:25:44.790Z,62.89
2019-05-05T20:28:14.525Z,62.91
2019-05-05T20:30:43.421Z,63.14
2019-05-05T20:33:19.244Z,62.85
2019-05-05T20:35:51.245Z,63.37
2019-05-05T20:38:30.248Z,63.53
2019-05-05T20:41:14.272Z,63.84
2019-05-05T20:43:44.843Z,64.39
2019-05-05T20:46:14.126Z,64.75
2019-05-05T20:48:44.678Z,65.22
2019-05-05T20:51:13.956Z,66.06
2019-05-05T20:53:45.163Z,65.20
2019-05-05T20:56:14.936Z,65.63
2019-05-05T20:58:44.155Z,66.51
2019-05-05T21:01:14.002Z,65.18
2019-05-05T21:03:43.223Z,65.46
2019-05-05T21:06:13.878Z,65.06
2019-05-05T21:08:44.018Z,65.27
2019-05-05T21:11:14.159Z,65.11
2019-05-05T21:13:45.158Z,65.63
2019-05-05T21:16:14.469Z,65.69
2019-05-05T21:18:43.092Z,65.34
2019-05-05T21:21:16.858Z,65.75
2019-05-05T21:23:50.331Z,65.51
2019-05-05T21:26:24.342Z,65.76
2019-05-05T21:28:53.859Z,65.73
2019-05-05T21:31:23.952Z,65.85
2019-05-05T21:33:54.792Z,65.81
2019-05-05T21:36:24.395Z,65.74
2019-05-05T21:38:54.852Z,65.55
2019-05-05T21:41:24.516Z,65.27
2019-05-05T21:43:54.112Z,65.42
2019-05-05T21:46:23.998Z,65.46
2019-05-05T21:48:54.342Z,65.13
2019-05-05T21:51:34.995Z,65.75
2019-05-05T21:54:23.549Z,66.07
2019-05-05T21:57:04.254Z,66.14
2019-05-05T21:59:33.734Z,66.79
2019-05-05T22:02:03.953Z,66.61
2019-05-05T22:04:33.779Z,66.43
2019-05-05T22:07:03.757Z,66.52
2019-05-05T22:09:32.839Z,66.55
2019-05-05T22:12:04.013Z,66.64
2019-05-05T22:14:34.006Z,66.64
2019-05-05T22:17:04.106Z,66.89
2019-05-05T22:19:35.418Z,67.19
2019-05-05T22:22:07.130Z,67.25
2019-05-05T22:24:36.116Z,68.02
2019-05-05T22:27:04.815Z,67.80
2019-05-05T22:29:34.219Z,68.36
2019-05-05T22:32:06.001Z,68.34
2019-05-05T22:34:33.715Z,68.43
2019-05-05T22:37:05.769Z,69.24
2019-05-05T22:39:33.968Z,69.24
2019-05-05T22:42:04.701Z,69.13
2019-05-05T22:44:34.013Z,69.19
2019-05-05T22:47:04.635Z,69.21
2019-05-05T22:49:33.308Z,69.41
2019-05-05T22:52:03.834Z,69.27
2019-05-05T22:54:35.009Z,69.14
2019-05-05T22:57:04.578Z,69.14
2019-05-05T22:59:33.673Z,69.92
2019-05-05T23:02:03.969Z,69.82
2019-05-05T23:04:43.835Z,70.78
2019-05-05T23:07:23.951Z,70.78
2019-05-05T23:09:53.882Z,70.36
2019-05-05T23:12:24.379Z,70.97
2019-05-05T23:14:54.500Z,70.84
2019-05-05T23:17:29.491Z,71.16
2019-05-05T23:20:05.337Z,71.83
2019-05-05T23:22:41.085Z,71.83
2019-05-05T23:25:16.066Z,71.63
2019-05-05T23:27:48.108Z,71.63
2019-05-05T23:30:18.001Z,72.21
2019-05-05T23:32:47.147Z,72.21
2019-05-05T23:35:16.054Z,72.45
2019-05-05T23:37:45.772Z,72.55
2019-05-05T23:40:24.604Z,72.78
2019-05-05T23:42:54.346Z,73.03
2019-05-05T23:45:24.868Z,72.91
2019-05-05T23:47:54.796Z,73.30
2019-05-05T23:50:23.823Z,73.30
2019-05-05T23:52:54.417Z,74.02
2019-05-05T23:55:24.346Z,73.89
2019-05-05T23:57:54.782Z,74.38
